Time;durP1;ratioP1;P1;durP2;ratioP2;P2;SDS_P1;SDS_P2;PMS_P1;PMS_P2;Temp;Humidity;BMP_temperature;BMP_pressure;BME280_temperature;BME280_humidity;BME280_pressure;Samples;Min_cycle;Max_cycle;Signal;HPM_P1;HPM_P2
2022/03/07 00:01:31;;;;;;;;;63.50;52.75;;;;;5.12;48.85;101686.63;5034929;28;44998;-91
2022/03/07 00:03:57;;;;;;;;;65.67;53.67;;;;;5.18;49.17;101699.19;5046877;28;44968;-92
2022/03/07 00:06:23;;;;;;;;;63.25;51.75;;;;;5.14;49.16;101691.94;5052073;28;45159;-91
2022/03/07 00:08:49;;;;;;;;;69.50;55.25;;;;;5.24;48.97;101719.56;5031311;28;45278;-90
2022/03/07 00:11:15;;;;;;;;;65.25;53.50;;;;;5.12;49.16;101699.66;5032608;28;45091;-92
2022/03/07 00:13:40;;;;;;;;;66.00;52.00;;;;;5.02;49.16;101689.34;5044381;28;44985;-92
2022/03/07 00:16:06;;;;;;;;;64.00;54.00;;;;;5.16;49.52;101713.78;5044627;28;46958;-90
2022/03/07 00:18:31;;;;;;;;;64.33;53.33;;;;;5.04;49.32;101697.28;5051705;28;45111;-87
2022/03/07 00:20:56;;;;;;;;;66.00;53.00;;;;;4.89;49.60;101678.84;5044464;28;45100;-89
2022/03/07 00:23:22;;;;;;;;;69.67;54.67;;;;;4.70;49.61;101647.06;5040888;28;45145;-91
2022/03/07 00:25:47;;;;;;;;;68.33;54.00;;;;;5.11;49.44;101726.47;5033021;28;45389;-93
2022/03/07 00:28:14;;;;;;;;;61.75;49.50;;;;;5.03;49.32;101706.81;5048323;28;45136;-92
2022/03/07 00:30:40;;;;;;;;;60.50;50.25;;;;;5.00;49.70;101713.47;5039562;28;45199;-91
2022/03/07 00:33:05;;;;;;;;;65.67;53.33;;;;;5.05;49.47;101726.03;5022764;28;45272;-90
2022/03/07 00:35:30;;;;;;;;;67.00;54.33;;;;;4.80;49.75;101689.50;5036431;28;45265;-92
2022/03/07 00:37:56;;;;;;;;;61.00;48.50;;;;;4.81;49.79;101693.91;5034776;28;44931;-90
2022/03/07 00:40:24;;;;;;;;;68.25;55.00;;;;;4.54;49.84;101656.38;5052278;28;45381;-88
2022/03/07 00:42:49;;;;;;;;;60.75;48.00;;;;;4.29;49.84;101608.53;5051847;28;44861;-84
2022/03/07 00:45:15;;;;;;;;;61.00;50.00;;;;;4.38;50.26;101645.59;5049504;28;45562;-89
2022/03/07 00:47:40;;;;;;;;;66.50;51.75;;;;;4.63;50.09;101688.28;5018949;28;45540;-90
2022/03/07 00:50:06;;;;;;;;;60.50;50.25;;;;;4.86;50.23;101725.50;5021310;28;45434;-92
2022/03/07 00:52:32;;;;;;;;;58.75;42.75;;;;;4.74;50.36;101709.00;5005203;28;45387;-92
2022/03/07 00:54:57;;;;;;;;;63.50;48.75;;;;;4.77;49.97;101724.81;4996525;28;45930;-93
2022/03/07 00:57:22;;;;;;;;;66.00;52.75;;;;;4.70;50.16;101706.94;5024380;28;45406;-91
2022/03/07 00:59:48;;;;;;;;;55.00;46.33;;;;;4.54;50.12;101685.00;5012143;28;45085;-92
2022/03/07 01:02:13;;;;;;;;;65.67;51.33;;;;;4.71;50.49;101724.38;5012916;28;44655;-90
2022/03/07 01:04:39;;;;;;;;;62.50;52.00;;;;;4.69;50.34;101720.78;5007501;28;45599;-90
2022/03/07 01:07:04;;;;;;;;;65.00;49.00;;;;;4.76;50.69;101730.81;5009047;28;45104;-92
2022/03/07 01:09:29;;;;;;;;;63.50;50.50;;;;;4.40;50.56;101675.25;5012572;28;45115;-90
2022/03/07 01:11:55;;;;;;;;;70.67;54.33;;;;;4.71;50.56;101725.28;5012165;28;45200;-86
2022/03/07 01:14:20;;;;;;;;;62.25;50.00;;;;;4.06;50.68;101622.41;5004821;28;48052;-88
2022/03/07 01:16:46;;;;;;;;;61.25;50.00;;;;;4.45;50.59;101689.53;5005790;28;45289;-91
2022/03/07 01:19:11;;;;;;;;;63.00;50.75;;;;;4.20;50.79;101639.06;5009676;28;45215;-85
2022/03/07 01:21:39;;;;;;;;;61.00;51.25;;;;;4.33;50.64;101673.88;5012436;28;45076;-81
2022/03/07 01:24:04;;;;;;;;;62.50;49.25;;;;;4.29;50.85;101663.16;5020516;28;45482;-82
2022/03/07 01:26:30;;;;;;;;;62.25;49.50;;;;;4.61;51.06;101728.00;5031902;28;44973;-81
2022/03/07 01:28:55;;;;;;;;;65.50;50.50;;;;;4.59;50.98;101725.28;5031818;28;45076;-86
2022/03/07 01:31:21;;;;;;;;;65.25;50.75;;;;;4.42;51.13;101689.28;5031285;28;45026;-87
2022/03/07 01:33:46;;;;;;;;;64.67;50.67;;;;;4.57;51.21;101720.75;5022097;28;46481;-82
2022/03/07 01:36:11;;;;;;;;;61.00;50.00;;;;;4.48;51.35;101700.13;5022190;28;45123;-88
2022/03/07 01:38:37;;;;;;;;;56.00;47.33;;;;;4.38;51.34;101687.25;5024758;28;45265;-81
2022/03/07 01:41:02;;;;;;;;;60.25;47.75;;;;;3.92;51.17;101615.28;5031148;28;45249;-88
2022/03/07 01:43:29;;;;;;;;;56.67;47.67;;;;;4.50;51.53;101724.59;5021168;28;46001;-90
2022/03/07 01:45:54;;;;;;;;;65.25;51.75;;;;;4.14;51.53;101657.72;5028764;28;45193;-87
2022/03/07 01:48:20;;;;;;;;;55.50;46.25;;;;;4.50;51.40;101718.50;5010257;28;45252;-91
2022/03/07 01:50:45;;;;;;;;;59.75;49.00;;;;;4.37;51.48;101698.44;5014450;28;46430;-84
2022/03/07 01:53:10;;;;;;;;;55.25;47.25;;;;;4.33;51.73;101696.41;5038307;28;46089;-86
2022/03/07 01:55:36;;;;;;;;;61.25;50.25;;;;;4.06;51.61;101643.22;5051078;28;45113;-81
2022/03/07 01:58:02;;;;;;;;;61.25;49.00;;;;;4.12;51.41;101652.38;5038273;28;45018;-88
2022/03/07 02:00:28;;;;;;;;;56.00;46.75;;;;;4.07;51.51;101638.13;5030626;28;45181;-90
2022/03/07 02:02:54;;;;;;;;;57.25;45.75;;;;;4.44;51.59;101710.25;5031843;28;45509;-91
2022/03/07 02:05:20;;;;;;;;;59.00;47.25;;;;;4.42;51.53;101702.28;5030319;28;44933;-92
2022/03/07 02:07:45;;;;;;;;;56.33;46.00;;;;;3.93;51.59;101617.97;5031534;28;44913;-91
2022/03/07 02:10:11;;;;;;;;;56.50;45.75;;;;;4.38;51.71;101693.38;5043485;28;44978;-91
2022/03/07 02:12:38;;;;;;;;;53.75;45.50;;;;;4.19;51.81;101669.38;5051089;28;45878;-91
2022/03/07 02:15:05;;;;;;;;;56.00;46.00;;;;;4.34;51.82;101690.44;5051807;28;45105;-92
2022/03/07 02:17:30;;;;;;;;;58.25;46.25;;;;;4.30;51.80;101698.78;5051653;28;44847;-92
2022/03/07 02:19:56;;;;;;;;;33.25;24.75;;;;;4.04;52.13;101652.59;5051971;28;44957;-91
2022/03/07 02:22:22;;;;;;;;;51.50;41.75;;;;;3.90;52.02;101615.16;5051318;28;45480;-91
2022/03/07 02:24:47;;;;;;;;;49.50;41.75;;;;;4.08;52.15;101655.53;5050828;28;44971;-92
2022/03/07 02:27:15;;;;;;;;;54.50;46.25;;;;;4.28;52.01;101689.94;5051428;28;45018;-92
2022/03/07 02:29:40;;;;;;;;;62.00;51.00;;;;;4.26;52.14;101684.63;5051293;28;45328;-90
2022/03/07 02:32:07;;;;;;;;;59.25;46.00;;;;;4.03;51.95;101646.50;5045856;28;45990;-92
2022/03/07 02:34:32;;;;;;;;;59.75;47.25;;;;;4.23;52.01;101678.28;5045229;28;45298;-91
2022/03/07 02:36:58;;;;;;;;;55.25;45.00;;;;;3.20;51.55;101506.81;5040082;28;45021;-91
2022/03/07 02:39:23;;;;;;;;;43.50;39.25;;;;;4.10;52.25;101669.59;5047241;28;45050;-91
2022/03/07 02:41:49;;;;;;;;;55.67;46.00;;;;;4.17;52.31;101676.16;5038426;28;45460;-90
2022/03/07 02:44:14;;;;;;;;;49.50;44.75;;;;;3.57;52.23;101562.44;5044756;28;44911;-90
2022/03/07 02:46:40;;;;;;;;;55.00;44.00;;;;;3.83;52.23;101605.06;5043258;28;45519;-91
2022/03/07 02:49:06;;;;;;;;;53.50;44.50;;;;;4.17;52.59;101657.03;5033456;28;45185;-91
2022/03/07 02:51:32;;;;;;;;;51.75;43.75;;;;;3.53;52.25;101555.19;5050973;28;45805;-89
2022/03/07 02:53:58;;;;;;;;;53.00;46.00;;;;;3.61;52.16;101567.09;5046192;28;44895;-92
2022/03/07 02:56:23;;;;;;;;;53.00;45.75;;;;;3.94;52.28;101634.47;5031641;28;45308;-88
2022/03/07 02:58:49;;;;;;;;;56.25;46.25;;;;;3.69;52.11;101579.75;5032290;28;45232;-90
2022/03/07 03:01:14;;;;;;;;;50.00;42.75;;;;;4.08;52.32;101660.75;5042225;28;45923;-90
2022/03/07 03:03:40;;;;;;;;;52.75;45.25;;;;;4.05;52.50;101659.63;5044778;28;44966;-90
2022/03/07 03:06:05;;;;;;;;;49.75;43.50;;;;;4.03;52.40;101651.69;5040306;28;45302;-92
2022/03/07 03:08:30;;;;;;;;;57.00;48.00;;;;;3.53;52.39;101570.78;5050917;28;45543;-87
2022/03/07 03:10:59;;;;;;;;;56.67;44.67;;;;;3.84;52.71;101633.81;5047062;28;45396;-90
2022/03/07 03:13:24;;;;;;;;;50.75;42.75;;;;;3.93;52.73;101643.09;5016113;28;45262;-89
2022/03/07 03:15:51;;;;;;;;;55.75;45.75;;;;;3.61;52.78;101584.38;5033984;28;45082;-89
2022/03/07 03:18:18;;;;;;;;;52.25;43.00;;;;;3.90;52.88;101632.47;5033758;28;45200;-88
2022/03/07 03:20:45;;;;;;;;;53.00;43.25;;;;;3.79;52.91;101622.16;5033607;28;45423;-84
2022/03/07 03:23:11;;;;;;;;;54.75;44.50;;;;;3.80;52.88;101626.56;5033727;28;44998;-86
2022/03/07 03:25:37;;;;;;;;;54.25;45.25;;;;;3.28;52.74;101535.94;5033788;28;45164;-82
2022/03/07 03:28:03;;;;;;;;;56.00;45.50;;;;;3.20;52.85;101511.06;5033299;28;44911;-83
2022/03/07 03:30:28;;;;;;;;;50.50;41.75;;;;;3.89;52.70;101641.94;5029144;28;46833;-88
2022/03/07 03:32:54;;;;;;;;;52.50;43.00;;;;;3.66;52.70;101602.91;5030466;28;45141;-89
2022/03/07 03:35:19;;;;;;;;;49.67;41.00;;;;;3.58;52.75;101591.94;5032209;28;45120;-84
2022/03/07 03:37:44;;;;;;;;;50.00;44.00;;;;;3.63;52.94;101607.06;5032956;28;45247;-86
2022/03/07 03:40:12;;;;;;;;;52.25;43.75;;;;;3.42;52.81;101573.38;5008639;28;47291;-89
2022/03/07 03:42:37;;;;;;;;;53.50;42.25;;;;;3.49;52.76;101584.31;5028282;28;45088;-82
2022/03/07 03:45:08;;;;;;;;;58.50;44.00;;;;;3.83;52.95;101665.78;5033569;28;45042;-85
2022/03/07 03:47:38;;;;;;;;;47.00;42.25;;;;;3.63;52.86;101638.28;5035317;28;44985;-86
2022/03/07 03:50:05;;;;;;;;;50.25;43.25;;;;;3.79;52.97;101666.38;5053392;28;45917;-82
2022/03/07 03:52:31;;;;;;;;;47.50;42.00;;;;;3.78;53.08;101656.72;5053179;28;44922;-83
2022/03/07 03:54:56;;;;;;;;;42.50;39.75;;;;;3.78;53.00;101661.03;5053017;28;45226;-84
2022/03/07 03:57:23;;;;;;;;;57.50;44.00;;;;;3.39;53.09;101591.31;5040049;28;45069;-86
2022/03/07 03:59:48;;;;;;;;;52.00;40.50;;;;;3.43;53.08;101615.06;5033094;28;45262;-85
2022/03/07 04:02:13;;;;;;;;;49.33;42.33;;;;;3.49;53.25;101618.13;5043683;28;46457;-87
2022/03/07 04:04:39;;;;;;;;;46.00;42.25;;;;;3.33;53.31;101595.25;5053082;28;45047;-82
2022/03/07 04:07:05;;;;;;;;;49.75;42.50;;;;;3.13;53.19;101558.16;5032896;28;45211;-89
2022/03/07 04:09:30;;;;;;;;;47.50;40.25;;;;;3.60;53.28;101645.84;5038120;28;47400;-91
2022/03/07 04:11:56;;;;;;;;;49.25;41.25;;;;;3.68;53.30;101661.13;5053343;28;44861;-92
2022/03/07 04:14:21;;;;;;;;;52.50;42.75;;;;;3.50;52.93;101632.03;5053254;28;45176;-89
2022/03/07 04:16:47;;;;;;;;;47.75;42.00;;;;;3.51;53.22;101639.03;5052602;28;45082;-90
2022/03/07 04:19:13;;;;;;;;;51.75;42.50;;;;;3.23;53.25;101597.94;5041146;28;45437;-91
2022/03/07 04:21:39;;;;;;;;;47.50;43.50;;;;;3.27;53.19;101604.28;5035467;28;45310;-88
2022/03/07 04:24:06;;;;;;;;;44.25;40.50;;;;;3.13;53.27;101612.69;5042004;28;44890;-90
2022/03/07 04:26:32;;;;;;;;;43.00;40.00;;;;;3.45;53.37;101641.16;5030387;28;45204;-91
2022/03/07 04:28:58;;;;;;;;;46.50;40.50;;;;;3.51;53.46;101663.34;5049791;28;45166;-91
2022/03/07 04:31:23;;;;;;;;;47.50;41.00;;;;;2.85;53.41;101540.41;5053071;28;45203;-92
2022/03/07 04:33:49;;;;;;;;;47.00;38.25;;;;;3.46;53.69;101662.06;5048707;28;45285;-89
2022/03/07 04:36:15;;;;;;;;;47.00;42.50;;;;;2.91;53.55;101577.25;5053251;28;44966;-90
2022/03/07 04:38:41;;;;;;;;;41.25;37.75;;;;;3.03;53.51;101604.16;5053121;28;45821;-89
2022/03/07 04:41:06;;;;;;;;;45.00;40.00;;;;;3.39;53.65;101661.47;5034559;28;45129;-90
2022/03/07 04:43:32;;;;;;;;;50.25;40.75;;;;;3.38;53.64;101670.94;5032938;28;45013;-90
2022/03/07 04:45:58;;;;;;;;;43.75;38.50;;;;;3.10;53.74;101623.72;5032325;28;45018;-89
2022/03/07 04:48:25;;;;;;;;;44.25;38.75;;;;;3.35;53.74;101670.75;5032680;28;46042;-89
2022/03/07 04:50:50;;;;;;;;;46.25;40.25;;;;;3.34;53.99;101668.91;5033113;28;45279;-91
2022/03/07 04:53:16;;;;;;;;;53.25;42.75;;;;;3.32;53.85;101660.09;5032796;28;45082;-88
2022/03/07 04:55:41;;;;;;;;;40.00;36.00;;;;;2.89;53.90;101602.19;5029249;28;44919;-89
2022/03/07 04:58:06;;;;;;;;;42.25;39.00;;;;;3.31;53.82;101679.06;5030369;28;46148;-91
2022/03/07 05:00:32;;;;;;;;;41.00;32.33;;;;;2.54;53.97;101543.19;5031566;28;45077;-89
2022/03/07 05:02:57;;;;;;;;;46.25;40.75;;;;;3.28;54.19;101660.63;5023673;28;45230;-92
2022/03/07 05:05:23;;;;;;;;;47.33;43.00;;;;;3.27;54.06;101670.13;5021578;28;45341;-90
2022/03/07 05:07:51;;;;;;;;;38.00;35.00;;;;;3.07;53.98;101644.28;5028351;28;45429;-90
2022/03/07 05:10:17;;;;;;;;;45.75;39.25;;;;;3.26;54.15;101677.81;5032083;28;45260;-91
2022/03/07 05:12:43;;;;;;;;;43.50;39.75;;;;;3.13;54.25;101644.75;5028253;28;45062;-89
2022/03/07 05:15:09;;;;;;;;;51.25;39.25;;;;;3.22;54.20;101661.06;5024245;28;44992;-92
2022/03/07 05:17:56;;;;;;;;;49.00;44.00;;;;;3.04;54.11;101631.03;5033972;28;45937;-91
2022/03/07 05:20:23;;;;;;;;;50.75;41.75;;;;;3.19;54.12;101667.69;5036797;28;45772;-88
2022/03/07 05:22:48;;;;;;;;;46.25;39.75;;;;;3.17;54.09;101671.88;5036998;28;45360;-85
2022/03/07 05:25:15;;;;;;;;;47.50;42.25;;;;;3.15;54.06;101669.13;5032980;28;45321;-90
2022/03/07 05:27:41;;;;;;;;;49.75;42.00;;;;;2.69;54.25;101589.31;5046882;28;45997;-88
2022/03/07 05:30:08;;;;;;;;;49.67;43.00;;;;;3.03;54.46;101671.69;5050116;28;45133;-87
2022/03/07 05:32:34;;;;;;;;;42.25;38.75;;;;;2.95;54.22;101646.78;5031637;28;45057;-88
2022/03/07 05:34:59;;;;;;;;;45.25;39.50;;;;;3.07;54.72;101676.34;5031140;28;44914;-86
2022/03/07 05:37:25;;;;;;;;;44.00;38.75;;;;;2.75;54.30;101611.47;5040197;28;45618;-80
2022/03/07 05:39:50;;;;;;;;;47.00;39.75;;;;;2.58;54.38;101596.25;5032151;28;45308;-83
2022/03/07 05:42:16;;;;;;;;;45.50;39.00;;;;;2.85;54.70;101649.44;5032185;28;45167;-88
2022/03/07 05:44:42;;;;;;;;;48.25;41.50;;;;;2.72;54.37;101618.13;5033535;28;45194;-89
2022/03/07 05:47:07;;;;;;;;;42.75;39.75;;;;;3.00;54.70;101681.81;5051384;28;45581;-81
2022/03/07 05:49:33;;;;;;;;;46.50;38.75;;;;;2.98;54.63;101678.22;5033006;28;44974;-83
2022/03/07 05:51:59;;;;;;;;;48.50;41.50;;;;;2.99;54.72;101673.91;5033482;28;45167;-81
2022/03/07 05:54:24;;;;;;;;;47.50;42.25;;;;;2.59;54.59;101609.34;5049330;28;45054;-91
2022/03/07 05:56:49;;;;;;;;;39.50;35.25;;;;;2.69;54.93;101626.56;5028269;28;45248;-82
2022/03/07 05:59:15;;;;;;;;;50.33;40.00;;;;;2.96;54.92;101679.78;5030919;28;45188;-90
2022/03/07 06:01:40;;;;;;;;;43.25;39.75;;;;;2.64;54.87;101627.88;5013160;28;45055;-87
2022/03/07 06:04:06;;;;;;;;;42.75;40.00;;;;;2.90;54.80;101668.88;5033042;28;44992;-82
2022/03/07 06:06:31;;;;;;;;;45.00;40.00;;;;;2.95;54.95;101690.94;5047846;28;45321;-86
2022/03/07 06:08:56;;;;;;;;;45.00;39.00;;;;;2.74;54.80;101647.69;5044039;28;45145;-87
2022/03/07 06:11:22;;;;;;;;;40.00;35.25;;;;;2.93;54.97;101684.72;5038813;28;45309;-83
2022/03/07 06:13:47;;;;;;;;;42.00;40.25;;;;;2.69;54.73;101633.44;5018387;28;45420;-81
2022/03/07 06:16:13;;;;;;;;;48.25;42.50;;;;;2.42;54.71;101598.41;5025262;28;45483;-91
2022/03/07 06:18:38;;;;;;;;;47.25;42.75;;;;;2.97;54.93;101686.78;5029384;28;45525;-90
2022/03/07 06:21:05;;;;;;;;;41.50;37.50;;;;;2.36;54.88;101583.22;5027537;28;45436;-89
2022/03/07 06:23:31;;;;;;;;;47.00;40.00;;;;;2.63;55.06;101636.44;5030175;28;45270;-91
2022/03/07 06:25:56;;;;;;;;;55.75;43.75;;;;;2.62;54.80;101644.13;5036786;28;45775;-88
2022/03/07 06:28:21;;;;;;;;;39.75;38.75;;;;;2.96;55.06;101697.97;5027226;28;45545;-88
2022/03/07 06:30:47;;;;;;;;;46.75;41.75;;;;;2.62;55.00;101638.94;5030266;28;45377;-90
2022/03/07 06:33:13;;;;;;;;;42.25;33.00;;;;;2.95;55.12;101690.03;5041508;28;45389;-91
2022/03/07 06:35:39;;;;;;;;;44.00;41.00;;;;;2.71;55.18;101655.22;5050727;28;45246;-92
2022/03/07 06:38:04;;;;;;;;;43.50;39.00;;;;;2.60;55.19;101636.19;5034548;28;45033;-86
2022/03/07 06:40:31;;;;;;;;;50.00;42.00;;;;;2.36;55.00;101593.59;5025853;28;45422;-89
2022/03/07 06:42:57;;;;;;;;;41.75;39.00;;;;;1.62;55.18;101464.88;5031350;28;44991;-90
2022/03/07 06:45:22;;;;;;;;;44.50;39.25;;;;;2.63;54.85;101640.75;5048325;28;45285;-86
2022/03/07 06:47:47;;;;;;;;;47.25;40.50;;;;;2.63;54.80;101646.84;5054328;28;44999;-92
2022/03/07 06:50:14;;;;;;;;;42.00;38.25;;;;;2.93;55.13;101694.22;5054433;28;44986;-89
2022/03/07 06:52:39;;;;;;;;;42.75;39.75;;;;;2.16;54.74;101558.28;5054114;28;44828;-89
2022/03/07 06:55:05;;;;;;;;;45.00;40.00;;;;;3.03;54.88;101707.13;5040789;28;46328;-90
2022/03/07 06:57:31;;;;;;;;;46.00;40.00;;;;;2.71;55.10;101645.78;5027260;28;45120;-85
2022/03/07 06:59:56;;;;;;;;;46.25;42.25;;;;;2.54;54.76;101605.47;5029743;28;45363;-89
2022/03/07 07:02:22;;;;;;;;;50.50;40.75;;;;;3.11;55.11;101708.66;5030747;28;44994;-90
2022/03/07 07:04:47;;;;;;;;;39.00;38.25;;;;;2.71;54.84;101624.06;5034794;28;45395;-83
2022/03/07 07:07:15;;;;;;;;;37.00;35.33;;;;;2.74;54.79;101640.81;5040717;28;45040;-91
2022/03/07 07:24:09;;;;;;;;;49.25;41.75;;;;;3.22;54.55;101678.34;5189603;27;45054;-78
2022/03/07 07:26:35;;;;;;;;;57.50;45.50;;;;;3.40;54.40;101694.44;5152229;27;45199;-78
2022/03/07 07:29:00;;;;;;;;;44.25;39.25;;;;;3.39;53.85;101697.84;5149699;27;45141;-79
2022/03/07 07:31:25;;;;;;;;;51.50;43.75;;;;;3.47;54.18;101692.47;5130820;27;44928;-78
2022/03/07 07:33:50;;;;;;;;;50.00;42.33;;;;;3.40;54.20;101671.06;5148981;27;47207;-80
2022/03/07 07:36:16;;;;;;;;;44.33;39.67;;;;;3.27;54.06;101653.63;5166949;27;47682;-81
2022/03/07 07:38:41;;;;;;;;;49.00;40.67;;;;;3.57;53.73;101700.19;5170802;27;45236;-80
2022/03/07 07:41:07;;;;;;;;;41.75;38.00;;;;;3.60;53.71;101699.53;5156935;27;45166;-80
2022/03/07 07:43:33;;;;;;;;;49.50;42.75;;;;;3.48;53.82;101672.56;5154752;27;46053;-79
2022/03/07 07:45:58;;;;;;;;;47.25;42.00;;;;;3.31;53.42;101642.69;5146847;27;45586;-84
2022/03/07 07:48:23;;;;;;;;;49.00;42.67;;;;;3.57;54.03;101689.78;5144378;27;44920;-81
2022/03/07 07:50:49;;;;;;;;;43.67;38.00;;;;;3.50;53.47;101671.03;5159622;27;45144;-82
2022/03/07 07:53:14;;;;;;;;;36.00;32.00;;;;;3.13;53.26;101594.50;5163376;27;45467;-83
2022/03/07 07:55:39;;;;;;;;;39.67;38.67;;;;;3.25;53.45;101606.75;5149330;27;45468;-81
2022/03/07 07:58:05;;;;;;;;;44.33;38.67;;;;;3.65;53.16;101676.50;5136298;27;45428;-80
2022/03/07 08:00:30;;;;;;;;;45.33;41.00;;;;;3.79;53.25;101696.63;5147648;27;44950;-80
2022/03/07 08:02:55;;;;;;;;;46.50;40.50;;;;;3.72;53.56;101679.66;5144779;27;45299;-80
2022/03/07 08:05:21;;;;;;;;;43.67;39.00;;;;;3.68;53.36;101656.81;5147534;27;46553;-81
2022/03/07 08:07:47;;;;;;;;;47.75;42.00;;;;;3.89;52.97;101691.34;5157368;27;45086;-80
2022/03/07 08:10:17;;;;;;;;;44.25;39.75;;;;;3.95;53.12;101693.53;5157466;27;45252;-80
2022/03/07 08:12:44;;;;;;;;;43.75;39.75;;;;;3.96;53.21;101688.44;5151917;27;45665;-80
2022/03/07 08:15:12;;;;;;;;;44.00;39.75;;;;;3.90;53.09;101668.88;5161465;27;46297;-80
2022/03/07 08:17:52;;;;;;;;;45.75;40.75;;;;;4.09;53.07;101677.28;5149022;27;45135;-81
2022/03/07 08:20:27;;;;;;;;;49.25;40.75;;;;;4.04;52.60;101668.19;5145390;27;45091;-82
2022/03/07 08:22:52;;;;;;;;;46.00;41.25;;;;;4.11;52.87;101676.59;5143730;27;45318;-81
2022/03/07 08:25:19;;;;;;;;;39.50;35.00;;;;;4.22;52.73;101695.59;5129015;27;44866;-82
2022/03/07 08:27:44;;;;;;;;;39.00;32.75;;;;;3.82;52.63;101637.06;5131205;27;45086;-84
2022/03/07 08:30:12;;;;;;;;;47.67;41.67;;;;;4.29;52.71;101703.09;5148176;27;45149;-83
2022/03/07 08:32:40;;;;;;;;;52.25;41.50;;;;;4.25;52.56;101684.53;5150524;27;45438;-83
2022/03/07 08:35:06;;;;;;;;;54.75;43.50;;;;;4.37;51.93;101690.63;5148364;27;45660;-81
2022/03/07 08:37:32;;;;;;;;;45.25;39.00;;;;;4.39;52.20;101696.88;5151585;27;45057;-82
2022/03/07 08:39:58;;;;;;;;;43.75;40.00;;;;;4.41;51.74;101692.69;5140321;27;44902;-83
2022/03/07 08:42:23;;;;;;;;;44.00;40.50;;;;;4.44;51.92;101689.41;5116523;27;47548;-82
2022/03/07 08:44:51;;;;;;;;;46.00;40.00;;;;;4.20;51.89;101626.94;5145593;27;45059;-82
2022/03/07 08:47:16;;;;;;;;;45.75;40.25;;;;;4.30;51.81;101638.94;5149996;27;45111;-81
2022/03/07 08:49:42;;;;;;;;;46.00;39.50;;;;;4.45;51.76;101650.47;5140049;27;45334;-80
2022/03/07 08:52:08;;;;;;;;;44.75;41.75;;;;;4.61;51.71;101670.72;5139059;27;45476;-80
2022/03/07 08:54:33;;;;;;;;;42.25;37.00;;;;;4.65;51.37;101668.47;5131243;27;45321;-81
2022/03/07 08:56:59;;;;;;;;;46.75;42.25;;;;;4.56;51.34;101644.34;5136112;27;45030;-81
2022/03/07 08:59:27;;;;;;;;;42.67;38.00;;;;;4.54;51.07;101638.13;5141525;27;45606;-80
2022/03/07 09:01:53;;;;;;;;;44.50;40.75;;;;;4.74;51.20;101664.72;5138961;27;46058;-80
2022/03/07 09:04:20;;;;;;;;;53.50;43.75;;;;;4.80;50.99;101671.28;5134674;27;46315;-80
2022/03/07 09:06:45;;;;;;;;;51.75;42.50;;;;;4.81;50.50;101677.38;5132387;27;45213;-80
2022/03/07 09:09:11;;;;;;;;;49.25;43.25;;;;;4.82;50.78;101673.97;5134336;27;45042;-81
2022/03/07 09:11:36;;;;;;;;;46.25;39.75;;;;;4.76;50.38;101655.31;5136020;27;45533;-80
2022/03/07 09:14:01;;;;;;;;;38.67;37.00;;;;;4.82;50.21;101667.06;5138458;27;45111;-80
2022/03/07 09:16:27;;;;;;;;;46.67;41.67;;;;;4.83;50.22;101663.69;5140319;27;45189;-80
2022/03/07 09:18:52;;;;;;;;;48.25;41.75;;;;;4.89;50.14;101663.22;5131476;27;45464;-80
2022/03/07 09:21:17;;;;;;;;;46.67;41.67;;;;;4.92;50.13;101660.81;5133709;27;45299;-80
2022/03/07 09:23:43;;;;;;;;;39.50;36.50;;;;;4.83;49.82;101636.75;5129595;27;46347;-81
2022/03/07 09:26:11;;;;;;;;;38.75;36.75;;;;;4.89;49.91;101642.38;5142229;27;46311;-81
2022/03/07 09:28:37;;;;;;;;;38.00;37.75;;;;;5.05;49.55;101657.41;5139899;27;45241;-81
2022/03/07 09:31:02;;;;;;;;;47.25;41.00;;;;;5.05;49.39;101650.50;5137929;27;45649;-81
2022/03/07 09:33:28;;;;;;;;;37.50;35.00;;;;;5.16;49.19;101659.97;5135303;27;45048;-81
2022/03/07 09:35:54;;;;;;;;;45.25;39.00;;;;;5.17;49.18;101648.75;5129351;27;45237;-81
2022/03/07 09:38:20;;;;;;;;;36.25;35.75;;;;;5.29;48.94;101655.63;5126067;27;45409;-81
2022/03/07 09:40:46;;;;;;;;;31.00;30.50;;;;;5.32;48.63;101654.16;5140040;27;45233;-81
2022/03/07 09:43:12;;;;;;;;;47.50;40.00;;;;;5.38;48.68;101654.56;5139157;27;45054;-81
2022/03/07 09:45:38;;;;;;;;;36.50;36.00;;;;;5.31;48.69;101639.28;5145484;27;45204;-81
2022/03/07 09:48:04;;;;;;;;;45.00;38.33;;;;;5.49;48.28;101657.91;5134402;27;45108;-81
2022/03/07 09:50:30;;;;;;;;;42.25;39.25;;;;;5.51;48.00;101655.41;5134612;27;45513;-81
2022/03/07 09:52:55;;;;;;;;;37.25;35.00;;;;;5.50;47.95;101641.47;5133795;27;45181;-82
2022/03/07 09:55:23;;;;;;;;;33.00;32.33;;;;;5.50;47.55;101636.25;5119652;27;45220;-81
2022/03/07 09:57:48;;;;;;;;;37.75;33.75;;;;;5.35;47.51;101597.00;5145243;27;45057;-80
2022/03/07 10:00:15;;;;;;;;;40.25;35.00;;;;;5.56;47.25;101620.13;5133734;27;45237;-82
2022/03/07 10:03:04;;;;;;;;;39.25;33.75;;;;;5.76;47.46;101644.97;5122003;27;45094;-81
2022/03/07 10:05:33;;;;;;;;;41.00;37.75;;;;;5.83;47.11;101644.59;5147734;27;45412;-83
2022/03/07 10:07:58;;;;;;;;;35.50;34.25;;;;;5.86;47.04;101623.91;5119384;27;45322;-82
2022/03/07 10:10:32;;;;;;;;;35.00;31.00;;;;;5.95;46.71;101640.22;5133253;27;45101;-82
2022/03/07 10:13:08;;;;;;;;;38.50;36.00;;;;;6.01;46.39;101635.44;5125440;27;45263;-82
2022/03/07 10:15:35;;;;;;;;;39.25;36.00;;;;;6.04;46.45;101627.78;5131110;27;44975;-82
2022/03/07 10:18:00;;;;;;;;;45.25;38.75;;;;;6.10;46.23;101622.97;5127871;27;45450;-82
2022/03/07 10:20:26;;;;;;;;;34.25;33.25;;;;;6.15;46.44;101613.75;5123467;27;45596;-82
2022/03/07 10:23:00;;;;;;;;;35.50;33.25;;;;;6.10;46.34;101591.66;5121047;27;45507;-82
2022/03/07 10:25:31;;;;;;;;;36.75;31.75;;;;;6.28;45.80;101612.84;5122708;27;45743;-82
2022/03/07 10:28:00;;;;;;;;;40.75;35.75;;;;;6.36;45.99;101615.97;5132586;27;45030;-84
2022/03/07 10:30:28;;;;;;;;;44.75;38.25;;;;;6.38;45.65;101606.53;5132783;27;45935;-82
2022/03/07 10:33:08;;;;;;;;;32.75;31.75;;;;;6.41;45.48;101611.97;5128784;27;45687;-82
2022/03/07 10:35:40;;;;;;;;;37.50;35.00;;;;;6.35;45.36;101595.88;5121010;27;45228;-82
2022/03/07 10:38:12;;;;;;;;;33.75;30.00;;;;;6.47;45.06;101613.25;5105963;27;45469;-81
2022/03/07 10:40:41;;;;;;;;;42.00;37.50;;;;;6.41;45.25;101585.84;5126585;27;46031;-82
2022/03/07 10:43:07;;;;;;;;;38.75;35.00;;;;;6.57;45.18;101613.84;5112830;27;45423;-81
2022/03/07 10:45:46;;;;;;;;;33.00;30.75;;;;;6.63;44.98;101602.09;5114438;27;45316;-82
2022/03/07 10:48:11;;;;;;;;;37.50;35.75;;;;;6.64;44.90;101596.03;5114483;27;45441;-82
2022/03/07 10:50:37;;;;;;;;;34.25;33.50;;;;;6.66;45.04;101589.22;5114639;27;45571;-82
2022/03/07 10:53:05;;;;;;;;;40.25;38.00;;;;;6.76;44.56;101595.03;5114243;27;45587;-82
2022/03/07 10:55:32;;;;;;;;;37.25;34.75;;;;;6.87;43.98;101591.38;5114560;27;45290;-82
2022/03/07 10:58:08;;;;;;;;;44.00;38.75;;;;;6.82;44.08;101583.25;5113981;27;45496;-82
2022/03/07 11:00:45;;;;;;;;;40.75;36.75;;;;;6.87;43.87;101607.97;5114280;27;46235;-82
2022/03/07 11:03:15;;;;;;;;;38.50;36.00;;;;;6.86;43.87;101600.03;5114591;27;45410;-82
2022/03/07 11:05:41;;;;;;;;;38.50;36.00;;;;;6.76;43.26;101576.75;5114534;27;45311;-82
2022/03/07 11:08:07;;;;;;;;;36.50;33.75;;;;;6.75;43.30;101574.94;5114893;27;45672;-82
2022/03/07 11:10:32;;;;;;;;;35.25;32.25;;;;;6.85;43.21;101587.78;5114492;27;46061;-81
2022/03/07 11:12:59;;;;;;;;;34.00;32.00;;;;;6.78;43.66;101562.97;5113859;27;45395;-82
2022/03/07 11:15:24;;;;;;;;;43.00;38.25;;;;;6.91;43.45;101564.66;5114126;27;45437;-82
2022/03/07 11:17:50;;;;;;;;;39.00;37.25;;;;;6.92;43.11;101569.06;5114453;27;45379;-82
2022/03/07 11:20:17;;;;;;;;;34.50;33.75;;;;;7.02;43.29;101571.44;5114379;27;45542;-82
2022/03/07 11:22:43;;;;;;;;;41.00;38.50;;;;;7.05;43.20;101571.63;5114042;27;45446;-82
2022/03/07 11:25:10;;;;;;;;;37.50;35.50;;;;;6.95;43.07;101540.53;5114384;27;45269;-82
2022/03/07 11:27:37;;;;;;;;;37.50;33.75;;;;;7.04;43.09;101554.13;5114346;27;45678;-82